Terminal Aerodrome Forecast
Issued by NWS

Home | Current Version | Previous Version | Text Only | Print | Product List | Glossary On
Versions: 1 2 3 4 5 6 7 8 9 10 11 12 13 14
000
FTUS42 KTBW 281731
TAFPGD
TAF
KPGD 281731Z 2818/2918 27005KT P6SM SCT060
     FM282000 28008KT P6SM SCT060
     FM290000 30004KT P6SM FEW060
     FM290300 VRB03KT P6SM SKC
      TEMPO 2909/2912 5SM BR
     FM291400 15006KT P6SM SKC
     FM291700 19007KT P6SM SCT050=

USA.gov is the U.S. government's official web portal to all federal, state and local government web resources and services.